• Join FlightAware (Why Join?)
  • Login
  • US Flag 
Gobble Gobble! 
10:39PM EST


 

Airport Tracker/Info


-or-


 

Live Flight TrackerFlight Track Log ✈ CTL78 ✈ 17-May-2013 ✈ KYIP - KBKL

Flight Track Log - Related Links

Times and Time Zones

All times are in EDT time to prevent confusion due to time zone crossing. See the CTL78 flight status page for this flight to view local times or setup timezone preferences in your user account.

Time Position Orientation Groundspeed Altitude Reporting Facility
EDT Latitude Longitude Course Direction KTS MPH feet Rate Location/Type
09:55PM 42.2708 -83.5858 299° West 143 165 2,600  Level Cleveland Center
09:56PM 42.2842 -83.6342 290° West 146 168 3,700 1,020 Climbing Cleveland Center
09:57PM 42.2583 -83.6608 217° Southwest 141 162 4,700 600 Climbing Cleveland Center
09:58PM 42.2125 -83.6672 186° South 145 167 5,000 120 Climbing Cleveland Center
09:59PM 42.1667 -83.6678 181° South 168 193 5,000  Level Cleveland Center
10:00PM 42.1231 -83.6600 172° South 167 192 5,000  Level Cleveland Center
10:01PM 42.1036 -83.6086 117° Southeast 164 189 5,000  Level Cleveland Center
10:02PM 42.0883 -83.5547 111° Southeast 163 188 5,000  Level Cleveland Center
10:03PM 42.0606 -83.5003 124° Southeast 166 191 5,000  Level Cleveland Center
10:04PM 42.0392 -83.4322 113° Southeast 164 189 5,000  Level Cleveland Center
10:05PM 42.0197 -83.3753 115° Southeast 164 189 5,000  Level Cleveland Center
10:06PM 42.0044 -83.3189 110° East 163 188 5,000  Level Cleveland Center
10:07PM 41.9869 -83.2594 112° Southeast 165 190 5,000  Level Cleveland Center
10:08PM 41.9717 -83.2028 110° East 164 189 5,000  Level Cleveland Center
10:09PM 41.9564 -83.1464 110° East 165 190 5,000  Level Cleveland Center
10:10PM 41.9367 -83.0897 115° Southeast 167 192 5,000  Level Cleveland Center
10:11PM 41.9192 -83.0333 113° Southeast 167 192 5,000  Level Cleveland Center
10:12PM 41.9036 -82.9825 112° Southeast 167 192 5,000  Level Cleveland Center
10:13PM 41.8819 -82.9175 114° Southeast 165 190 5,000  Level Cleveland Center
10:14PM 41.8783 -82.8978 104° East 165 190 5,000  Level Cleveland Center
10:15PM 41.8608 -82.8303 109° East 167 192 5,000  Level Cleveland Center
10:16PM 41.8453 -82.7711 109° East 169 194 5,000  Level Cleveland Center
10:17PM 41.8275 -82.7122 112° Southeast 169 194 5,000  Level Cleveland Center
10:18PM 41.8119 -82.6558 110° East 171 197 5,000  Level Cleveland Center
10:19PM 41.7922 -82.5994 115° Southeast 169 194 5,100  Climbing Cleveland Center
10:20PM 41.7725 -82.5236 109° East 173 199 5,000 -60 Descending Cleveland Center
10:21PM 41.7547 -82.4703 114° Southeast 174 200 5,000 -180 Level Cleveland Center
10:22PM 41.7308 -82.4083 117° Southeast 179 206 4,700 -360 Descending Cleveland Center
10:23PM 41.7108 -82.3467 113° Southeast 184 212 4,300 -420 Descending Cleveland Center
10:24PM 41.6931 -82.2878 112° Southeast 178 205 3,900 -480 Descending Cleveland Center
10:26PM 41.6633 -82.1703 109° East 169 194 3,000 -300 Descending Cleveland Center
10:27PM 41.6539 -82.1089 102° East 164 189 3,100 -180 Climbing Cleveland Center
10:28PM 41.6339 -82.0444 113° Southeast 167 192 2,700 -240 Descending Cleveland Center
10:29PM 41.6053 -81.9856 123° Southeast 166 191 2,600 -240 Descending Cleveland Center
10:30PM 41.5872 -81.9350 116° Southeast 169 194 2,300 -300 Descending Cleveland Center
10:31PM 41.5650 -81.8792 118° Southeast 167 192 2,100 -240 Descending Cleveland Center
10:32PM 41.5403 -81.8314 125° Southeast 161 185 1,900 -300 Descending Cleveland Center
10:33PM 41.5200 -81.7811 118° Southeast 148 170 1,600 -360 Descending Cleveland Center
10:34PM 41.5081 -81.7283 107° East 126 145 1,200 -360 Descending Cleveland Center